createdAt,value
2023-01-08T00:06:35.421Z,50.00
2023-01-08T00:16:44.691Z,50.10
2023-01-08T00:26:52.136Z,50.50
2023-01-08T00:37:00.655Z,50.00
2023-01-08T00:47:07.622Z,49.80
2023-01-08T00:57:15.938Z,49.40
2023-01-08T01:07:22.912Z,49.10
2023-01-08T01:17:32.016Z,49.80
2023-01-08T01:27:38.867Z,49.90
2023-01-08T01:37:47.121Z,50.50
2023-01-08T01:48:00.332Z,50.30
2023-01-08T01:58:14.690Z,49.40
2023-01-08T02:08:28.328Z,49.30
2023-01-08T02:18:44.559Z,49.10
2023-01-08T02:28:57.911Z,49.10
2023-01-08T02:39:46.456Z,48.90
2023-01-08T02:49:59.784Z,48.70
2023-01-08T03:00:07.287Z,48.50
2023-01-08T03:10:16.697Z,49.00
2023-01-08T03:20:26.315Z,48.70
2023-01-08T03:30:35.055Z,48.20
2023-01-08T03:40:47.654Z,48.00
2023-01-08T03:50:57.367Z,47.90
2023-01-08T04:01:04.695Z,47.90
2023-01-08T04:11:13.073Z,47.80
2023-01-08T04:21:20.325Z,50.50
2023-01-08T04:31:29.434Z,51.10
2023-01-08T04:41:36.320Z,51.80
2023-01-08T04:51:45.048Z,52.10
2023-01-08T05:01:51.849Z,52.70
2023-01-08T05:12:00.427Z,51.60
2023-01-08T05:22:10.887Z,51.80
2023-01-08T05:32:20.971Z,51.80
2023-01-08T05:42:27.747Z,52.00
2023-01-08T05:52:36.451Z,53.20
2023-01-08T06:02:43.266Z,53.30
2023-01-08T06:12:51.856Z,53.90
2023-01-08T06:22:59.447Z,53.30
2023-01-08T06:33:10.519Z,52.80
2023-01-08T06:43:17.414Z,52.40
2023-01-08T06:53:25.901Z,51.80
2023-01-08T07:03:32.660Z,51.10
2023-01-08T07:13:41.194Z,50.40
2023-01-08T07:23:50.708Z,50.00
2023-01-08T07:33:59.082Z,49.70
2023-01-08T07:44:06.145Z,49.20
2023-01-08T07:54:15.205Z,48.50
2023-01-08T08:04:22.008Z,48.00
2023-01-08T08:14:30.587Z,47.40
2023-01-08T08:24:37.999Z,47.00
2023-01-08T08:34:46.484Z,47.00
2023-01-08T08:44:53.520Z,47.10
2023-01-08T08:55:02.195Z,47.10
2023-01-08T09:05:09.868Z,47.10
2023-01-08T09:15:18.539Z,46.90
2023-01-08T09:25:25.697Z,46.60
2023-01-08T09:35:34.633Z,46.50
2023-01-08T09:45:42.674Z,46.50
2023-01-08T09:56:09.245Z,46.50
2023-01-08T10:06:18.639Z,46.30
2023-01-08T10:16:32.943Z,46.10
2023-01-08T10:26:41.829Z,46.00
2023-01-08T10:36:52.780Z,45.80
2023-01-08T10:47:02.571Z,45.70
2023-01-08T11:07:57.698Z,46.20
2023-01-08T11:18:21.969Z,45.40
2023-01-08T11:28:40.378Z,45.30
2023-01-08T11:38:49.420Z,45.10
2023-01-08T11:49:23.228Z,45.00
2023-01-08T11:59:38.651Z,45.00
2023-01-08T12:09:58.591Z,44.90
2023-01-08T12:20:22.474Z,44.70
2023-01-08T12:30:45.239Z,44.70
2023-01-08T12:40:58.180Z,44.50
2023-01-08T12:51:13.878Z,44.50
2023-01-08T13:01:32.435Z,44.40
2023-01-08T13:11:45.366Z,44.20
2023-01-08T13:21:56.298Z,44.10
2023-01-08T13:32:07.574Z,44.00
2023-01-08T13:42:29.324Z,44.00
2023-01-08T13:52:44.960Z,43.80
2023-01-08T14:03:40.360Z,43.70
2023-01-08T14:13:49.028Z,43.70
2023-01-08T14:23:59.161Z,43.50
2023-01-08T14:34:08.409Z,43.50
2023-01-08T14:44:20.857Z,43.40
2023-01-08T14:54:39.757Z,43.40
2023-01-08T15:04:47.777Z,43.40
2023-01-08T15:14:58.681Z,43.30
2023-01-08T15:25:19.535Z,43.20
2023-01-08T15:35:32.919Z,43.20
2023-01-08T15:45:47.690Z,43.20
2023-01-08T15:56:03.691Z,43.30
2023-01-08T16:06:14.607Z,43.10
2023-01-08T16:16:28.466Z,43.10
2023-01-08T16:26:39.567Z,43.10
2023-01-08T16:36:53.097Z,43.00
2023-01-08T16:47:03.202Z,43.00
2023-01-08T16:57:15.437Z,43.00
2023-01-08T17:07:26.959Z,43.00
2023-01-08T17:17:40.075Z,42.90
2023-01-08T17:27:53.974Z,42.90
2023-01-08T17:38:07.907Z,42.80
2023-01-08T17:48:17.799Z,43.00
2023-01-08T17:58:28.143Z,42.80
2023-01-08T18:08:35.553Z,41.90
2023-01-08T18:19:13.479Z,40.80
2023-01-08T18:29:20.266Z,41.40
2023-01-08T18:39:30.956Z,41.20
2023-01-08T18:49:38.299Z,41.60
2023-01-08T18:59:49.046Z,40.80
2023-01-08T19:09:55.904Z,41.10
2023-01-08T19:20:04.469Z,40.90
2023-01-08T19:30:12.793Z,41.10
2023-01-08T19:40:23.404Z,41.70
2023-01-08T19:50:35.054Z,42.40
2023-01-08T20:00:43.649Z,43.90
2023-01-08T20:10:50.406Z,44.50
2023-01-08T20:21:06.289Z,44.30
2023-01-08T20:31:14.698Z,44.30
2023-01-08T20:41:25.186Z,44.90
2023-01-08T20:51:32.149Z,44.10
2023-01-08T21:01:41.399Z,43.80
2023-01-08T21:11:48.196Z,43.10
2023-01-08T21:21:56.744Z,43.00
2023-01-08T21:32:03.756Z,43.20
2023-01-08T21:42:30.193Z,43.30
2023-01-08T21:52:53.644Z,43.50
2023-01-08T22:03:02.108Z,43.50
2023-01-08T22:13:09.530Z,43.60
2023-01-08T22:23:17.987Z,43.60
2023-01-08T22:33:24.816Z,43.60
2023-01-08T22:43:33.822Z,43.50
2023-01-08T22:53:40.776Z,43.70
2023-01-08T23:03:51.825Z,43.70
2023-01-08T23:13:58.896Z,44.10
2023-01-08T23:24:09.108Z,45.60
2023-01-08T23:34:18.647Z,47.00
2023-01-08T23:44:27.896Z,45.90
2023-01-08T23:54:37.551Z,46.20
